| time (UTC) | temp C | wind direction | speed KPH | gust KPH | rain 1hr cm | rain 24hr cm | rain mn cm | humidity % | barometer mb |
| 20260507201547 | 11 | 0 | 0.0 | 0.0 | 0.00 | 2.06 | 2.06 | 98 | 1001.4 |
| 20260507200042 | 11 | 0 | 0.0 | 0.0 | 0.00 | 2.06 | 2.06 | 98 | 1001.4 |
| 20260507194544 | 11 | 0 | 0.0 | 0.0 | 0.00 | 2.06 | 2.06 | 98 | 1001.2 |
| 20260507193044 | 11 | 0 | 0.0 | 0.0 | 0.00 | 2.06 | 2.06 | 98 | 1001.4 |
| 20260507191544 | 11 | 0 | 0.0 | 0.0 | 0.00 | 2.06 | 2.06 | 98 | 1001.5 |
| 20260507190042 | 11 | 0 | 0.0 | 0.0 | 0.00 | 2.06 | 2.06 | 98 | 1001.5 |
| 20260507184535 | 10 | 0 | 0.0 | 0.0 | 0.00 | 2.06 | 2.06 | 98 | 1001.7 |
| 20260507183045 | 10 | 0 | 0.0 | 0.0 | 0.00 | 2.06 | 2.06 | 98 | 1001.7 |
| 20260507181543 | 10 | 0 | 0.0 | 0.0 | 0.00 | 2.06 | 2.06 | 98 | 1002.0 |
| 20260507180050 | 10 | 0 | 0.0 | 0.0 | 0.05 | 2.06 | 2.06 | 98 | 1002.0 |
| 20260507174538 | 9 | 0 | 0.0 | 0.0 | 0.05 | 2.06 | 2.06 | 98 | 1002.1 |
| 20260507173048 | 8 | 0 | 0.0 | 0.0 | 0.13 | 2.06 | 2.06 | 98 | 1001.6 |
| 20260507171544 | 8 | 0 | 0.0 | 0.0 | 0.18 | 2.06 | 2.06 | 98 | 1001.3 |
| 20260507170051 | 8 | 0 | 0.0 | 0.0 | 0.15 | 2.01 | 2.01 | 97 | 1001.9 |
| 20260507164542 | 9 | 0 | 0.0 | 0.0 | 0.18 | 2.01 | 2.01 | 98 | 1001.8 |
| 20260507163044 | 8 | 0 | 0.0 | 0.0 | 0.18 | 1.93 | 1.93 | 98 | 1002.3 |
| 20260507161550 | 8 | 0 | 0.0 | 0.0 | 0.20 | 1.88 | 1.88 | 97 | 1002.5 |
| 20260507160037 | 8 | 0 | 0.0 | 0.0 | 0.28 | 1.85 | 1.85 | 97 | 1002.7 |
| 20260507154536 | 8 | 0 | 0.0 | 0.0 | 0.33 | 1.83 | 1.83 | 97 | 1002.7 |
| 20260507153040 | 8 | 0 | 0.0 | 0.0 | 0.53 | 1.75 | 1.75 | 97 | 1003.3 |
| 20260507151535 | 8 | 0 | 0.0 | 0.0 | 0.61 | 1.68 | 1.68 | 96 | 1003.5 |
| 20260507150036 | 8 | 0 | 0.0 | 0.0 | 0.74 | 1.57 | 1.57 | 97 | 1003.5 |
| 20260507144545 | 10 | 0 | 0.0 | 0.0 | 0.69 | 1.47 | 1.47 | 97 | 1004.0 |
| 20260507143057 | 10 | 0 | 0.0 | 0.0 | 0.41 | 1.19 | 1.19 | 97 | 1004.8 |
| 20260507141541 | 10 | 0 | 0.0 | 0.0 | 0.30 | 1.07 | 1.07 | 97 | 1003.7 |
| 20260507140040 | 10 | 0 | 0.0 | 0.0 | 0.08 | 0.84 | 0.84 | 97 | 1004.5 |
| 20260507134535 | 10 | 0 | 0.0 | 0.0 | 0.05 | 0.81 | 0.81 | 97 | 1004.3 |
| 20260507133044 | 10 | 0 | 0.0 | 0.0 | 0.03 | 0.79 | 0.79 | 97 | 1004.3 |
| 20260507131548 | 10 | 0 | 0.0 | 0.0 | 0.00 | 0.76 | 0.76 | 97 | 1004.5 |
| 20260507130058 | 10 | 0 | 0.0 | 0.0 | 0.00 | 0.76 | 0.76 | 96 | 1004.7 |
| 20260507124540 | 10 | 0 | 0.0 | 0.0 | 0.00 | 0.76 | 0.76 | 97 | 1004.8 |
| 20260507123035 | 10 | 0 | 0.0 | 0.0 | 0.00 | 0.76 | 0.76 | 97 | 1005.0 |
| 20260507121546 | 10 | 0 | 0.0 | 0.0 | 0.00 | 0.76 | 0.76 | 96 | 1005.2 |
| 20260507120042 | 10 | 0 | 0.0 | 0.0 | 0.00 | 0.76 | 0.76 | 96 | 1005.3 |
| 20260507114540 | 10 | 0 | 0.0 | 0.0 | 0.00 | 0.76 | 0.76 | 96 | 1005.5 |
| 20260507113042 | 11 | 0 | 0.0 | 0.0 | 0.00 | 0.76 | 0.76 | 96 | 1005.4 |
| 20260507111536 | 11 | 0 | 0.0 | 0.0 | 0.00 | 0.76 | 0.76 | 96 | 1006.0 |
| 20260507110043 | 11 | 0 | 0.0 | 0.0 | 0.00 | 0.76 | 0.76 | 96 | 1006.0 |
| 20260507104549 | 11 | 0 | 0.0 | 0.0 | 0.00 | 0.76 | 0.76 | 96 | 1005.6 |
| 20260507103106 | 11 | 0 | 0.0 | 0.0 | 0.00 | 0.76 | 0.76 | 96 | 1006.1 |
| 20260507101539 | 11 | 0 | 0.0 | 0.0 | 0.00 | 0.76 | 0.76 | 96 | 1006.1 |
| 20260507100039 | 11 | 0 | 0.0 | 0.0 | 0.00 | 0.76 | 0.76 | 96 | 1006.0 |
| 20260507094542 | 10 | 0 | 0.0 | 0.0 | 0.00 | 0.76 | 0.76 | 96 | 1006.2 |
| 20260507093043 | 10 | 0 | 0.0 | 0.0 | 0.00 | 0.76 | 0.76 | 96 | 1006.2 |
| 20260507091544 | 10 | 0 | 0.0 | 0.0 | 0.08 | 0.76 | 0.76 | 96 | 1006.3 |
| 20260507090036 | 10 | 0 | 0.0 | 0.0 | 0.33 | 0.76 | 0.76 | 96 | 1006.6 |
| 20260507084543 | 11 | 0 | 0.0 | 0.0 | 0.38 | 0.76 | 0.76 | 95 | 1006.7 |
| 20260507083044 | 11 | 0 | 0.0 | 0.0 | 0.46 | 0.76 | 0.76 | 95 | 1007.0 |
| 20260507081541 | 11 | 0 | 0.0 | 0.0 | 0.48 | 0.66 | 0.66 | 95 | 1007.1 |
| 20260507080049 | 11 | 0 | 0.0 | 0.0 | 0.30 | 0.43 | 0.43 | 95 | 1007.3 |
| 20260507074537 | 11 | 0 | 0.0 | 0.0 | 0.33 | 0.38 | 0.38 | 95 | 1007.5 |
| 20260507073040 | 11 | 0 | 0.0 | 0.0 | 0.28 | 0.30 | 0.30 | 94 | 1007.8 |
| 20260507071536 | 11 | 0 | 0.0 | 0.0 | 0.18 | 0.18 | 0.18 | 93 | 1007.9 |
| 20260507070051 | 11 | 0 | 0.0 | 0.0 | 0.13 | 0.13 | 0.13 | 92 | 1008.2 |
| 20260507064541 | 11 | 0 | 0.0 | 0.0 | 0.05 | 0.05 | 0.05 | 91 | 1008.5 |
| 20260507063042 | 11 | 0 | 0.0 | 0.0 | 0.03 | 0.03 | 0.03 | 89 | 1009.0 |
| 20260507061540 | 11 | 0 | 0.0 | 0.0 | 0.00 | 0.00 | 0.00 | 88 | 1009.0 |
| 20260507060035 | 11 | 0 | 0.0 | 0.0 | 0.00 | 0.00 | 0.00 | 88 | 1009.2 |
| 20260507054547 | 11 | 0 | 0.0 | 0.0 | 0.00 | 0.00 | 0.00 | 88 | 1009.7 |
| 20260507053035 | 10 | 0 | 0.0 | 0.0 | 0.00 | 0.00 | 0.00 | 89 | 1009.9 |
| 20260507051537 | 10 | 0 | 0.0 | 0.0 | 0.00 | 0.00 | 0.00 | 88 | 1010.0 |
| 20260507050049 | 10 | 0 | 0.0 | 0.0 | 0.00 | 0.00 | 0.00 | 89 | 1011.0 |
| 20260507044546 | 10 | 0 | 0.0 | 0.0 | 0.00 | 0.00 | 0.00 | 89 | 1011.2 |
| 20260507043035 | 10 | 0 | 0.0 | 0.0 | 0.00 | 0.00 | 0.00 | 88 | 1011.4 |
| 20260507041537 | 10 | 0 | 0.0 | 0.0 | 0.00 | 0.00 | 0.00 | 88 | 1011.8 |
| 20260507040044 | 10 | 0 | 0.0 | 0.0 | 0.00 | 0.00 | 0.00 | 88 | 1012.3 |
| 20260507034543 | 10 | 0 | 0.0 | 0.0 | 0.00 | 0.00 | 0.00 | 88 | 1012.2 |
| 20260507033039 | 11 | 0 | 0.0 | 0.0 | 0.00 | 0.00 | 0.00 | 88 | 1012.5 |
| 20260507031539 | 11 | 0 | 0.0 | 0.0 | 0.00 | 0.00 | 0.00 | 88 | 1012.7 |
| 20260507030035 | 11 | 0 | 0.0 | 0.0 | 0.00 | 0.00 | 0.00 | 88 | 1012.9 |
| 20260507024540 | 11 | 0 | 0.0 | 0.0 | 0.00 | 0.00 | 0.00 | 89 | 1013.1 |
| 20260507023035 | 10 | 0 | 0.0 | 0.0 | 0.00 | 0.00 | 0.00 | 90 | 1013.4 |
| 20260507021538 | 10 | 0 | 0.0 | 0.0 | 0.00 | 0.00 | 0.00 | 89 | 1013.4 |
| 20260507020104 | 10 | 0 | 0.0 | 0.0 | 0.00 | 0.00 | 0.00 | 89 | 1013.6 |
| 20260507014547 | 11 | 0 | 0.0 | 0.0 | 0.00 | 0.00 | 0.00 | 88 | 1014.0 |
| 20260507013046 | 11 | 0 | 0.0 | 0.0 | 0.00 | 0.00 | 0.00 | 90 | 1014.3 |
| 20260507011542 | 10 | 0 | 0.0 | 0.0 | 0.00 | 0.00 | 0.00 | 91 | 1014.6 |
| 20260507010043 | 10 | 0 | 0.0 | 0.0 | 0.00 | 0.00 | 0.00 | 89 | 1014.7 |
| 20260507004544 | 10 | 0 | 0.0 | 0.0 | 0.00 | 0.00 | 0.00 | 89 | 1014.8 |
| 20260507003043 | 10 | 0 | 0.0 | 0.0 | 0.00 | 0.00 | 0.00 | 89 | 1015.0 |
| 20260507001555 | 10 | 0 | 0.0 | 0.0 | 0.00 | 0.00 | 0.00 | 88 | 1014.9 |
| 20260507000043 | 11 | 0 | 0.0 | 0.0 | 0.00 | 0.00 | 0.00 | 87 | 1014.9 |
| 20260506234540 | 12 | 0 | 0.0 | 0.0 | 0.00 | 0.00 | 0.00 | 83 | 1015.0 |
| 20260506233047 | 13 | 0 | 0.0 | 0.0 | 0.00 | 0.00 | 0.00 | 85 | 1014.9 |
| 20260506231542 | 12 | 0 | 0.0 | 0.0 | 0.00 | 0.00 | 0.00 | 84 | 1014.8 |
| 20260506230042 | 14 | 0 | 0.0 | 0.0 | 0.00 | 0.00 | 0.00 | 79 | 1014.6 |
| 20260506224536 | 16 | 0 | 0.0 | 0.0 | 0.00 | 0.00 | 0.00 | 80 | 1014.7 |
| 20260506223038 | 16 | 0 | 0.0 | 0.0 | 0.00 | 0.00 | 0.00 | 80 | 1014.8 |
| 20260506221552 | 16 | 0 | 0.0 | 0.0 | 0.00 | 0.00 | 0.00 | 79 | 1015.0 |
| 20260506220047 | 17 | 0 | 0.0 | 0.0 | 0.00 | 0.00 | 0.00 | 78 | 1015.1 |
| 20260506214539 | 17 | 0 | 0.0 | 0.0 | 0.00 | 0.00 | 0.00 | 78 | 1014.9 |
| 20260506213043 | 17 | 0 | 0.0 | 0.0 | 0.00 | 0.00 | 0.00 | 77 | 1014.8 |
| 20260506211551 | 17 | 0 | 0.0 | 0.0 | 0.00 | 0.00 | 0.00 | 77 | 1014.7 |
| 20260506210047 | 17 | 0 | 0.0 | 0.0 | 0.00 | 0.00 | 0.00 | 77 | 1014.8 |
| 20260506204541 | 17 | 0 | 0.0 | 0.0 | 0.00 | 0.00 | 0.00 | 77 | 1014.8 |
| 20260506203035 | 18 | 0 | 0.0 | 0.0 | 0.00 | 0.00 | 0.00 | 75 | 1014.5 |